createdAt,value
2023-01-01T00:00:38.152Z,5.03
2023-01-01T00:03:04.711Z,3.70
2023-01-01T00:05:31.320Z,4.60
2023-01-01T00:08:04.348Z,2.90
2023-01-01T00:10:31.827Z,2.43
2023-01-01T00:12:59.077Z,4.30
2023-01-01T00:15:26.476Z,3.47
2023-01-01T00:17:53.320Z,3.50
2023-01-01T00:20:19.899Z,2.70
2023-01-01T00:22:55.389Z,2.50
2023-01-01T00:25:22.857Z,2.70
2023-01-01T00:27:49.620Z,2.57
2023-01-01T00:30:16.449Z,1.63
2023-01-01T00:32:43.044Z,2.80
2023-01-01T00:35:21.837Z,3.30
2023-01-01T00:37:48.443Z,3.23
2023-01-01T00:40:15.171Z,2.73
2023-01-01T00:42:41.787Z,1.77
2023-01-01T00:45:08.863Z,1.60
2023-01-01T00:47:35.451Z,2.73
2023-01-01T00:50:02.178Z,2.00
2023-01-01T00:52:28.979Z,1.97
2023-01-01T00:54:55.554Z,1.83
2023-01-01T00:57:22.088Z,2.33
2023-01-01T00:59:49.514Z,1.33
2023-01-01T01:02:16.252Z,2.30
2023-01-01T01:04:43.085Z,2.40
2023-01-01T01:07:09.676Z,2.17
2023-01-01T01:09:36.387Z,2.80
2023-01-01T01:12:17.990Z,1.30
2023-01-01T01:14:45.880Z,1.60
2023-01-01T01:17:12.445Z,1.50
2023-01-01T01:19:38.987Z,2.23
2023-01-01T01:22:05.549Z,1.80
2023-01-01T01:24:32.251Z,1.40
2023-01-01T01:26:58.783Z,2.23
2023-01-01T01:29:25.332Z,1.63
2023-01-01T01:31:52.939Z,1.90
2023-01-01T01:34:25.586Z,1.33
2023-01-01T01:36:54.305Z,1.83
2023-01-01T01:39:20.818Z,1.40
2023-01-01T01:41:47.339Z,1.67
2023-01-01T01:44:32.708Z,1.80
2023-01-01T01:46:59.951Z,1.30
2023-01-01T01:49:31.328Z,1.97
2023-01-01T01:51:58.985Z,1.50
2023-01-01T01:54:27.533Z,1.50
2023-01-01T01:57:01.928Z,1.70
2023-01-01T01:59:31.937Z,1.37
2023-01-01T02:01:58.955Z,1.97
2023-01-01T02:04:25.714Z,1.80
2023-01-01T02:06:53.070Z,1.43
2023-01-01T02:09:19.984Z,1.43
2023-01-01T02:11:46.550Z,1.40
2023-01-01T02:14:13.106Z,1.30
2023-01-01T02:16:43.511Z,2.10
2023-01-01T02:19:13.535Z,1.80
2023-01-01T02:21:52.431Z,2.20
2023-01-01T02:24:22.022Z,1.57
2023-01-01T02:26:51.187Z,2.53
2023-01-01T02:29:27.954Z,1.00
2023-01-01T02:32:01.426Z,1.80
2023-01-01T02:34:30.403Z,1.50
2023-01-01T02:36:57.813Z,2.17
2023-01-01T02:39:26.513Z,2.00
2023-01-01T02:41:54.289Z,2.13
2023-01-01T02:44:22.511Z,1.57
2023-01-01T02:46:49.033Z,1.83
2023-01-01T02:49:15.502Z,1.57
2023-01-01T02:51:47.085Z,1.33
2023-01-01T02:54:19.986Z,2.23
2023-01-01T02:56:55.713Z,1.80
2023-01-01T02:59:51.468Z,1.67
2023-01-01T03:02:31.268Z,1.83
2023-01-01T03:05:01.063Z,1.50
2023-01-01T03:07:40.011Z,1.57
2023-01-01T03:10:24.323Z,1.70
2023-01-01T03:12:56.658Z,2.40
2023-01-01T03:15:42.167Z,1.43
2023-01-01T03:18:12.167Z,1.43
2023-01-01T03:20:40.398Z,1.90
2023-01-01T03:23:09.789Z,1.60
2023-01-01T03:25:40.459Z,1.53
2023-01-01T03:28:09.260Z,2.00
2023-01-01T03:30:37.673Z,2.23
2023-01-01T03:33:07.984Z,2.00
2023-01-01T03:35:45.131Z,1.87
2023-01-01T03:38:23.617Z,1.40
2023-01-01T03:40:51.541Z,1.83
2023-01-01T03:43:26.583Z,1.50
2023-01-01T03:45:53.708Z,2.43
2023-01-01T03:48:20.220Z,1.83
2023-01-01T03:50:59.028Z,1.60
2023-01-01T03:53:25.710Z,2.40
2023-01-01T03:56:00.607Z,1.93
2023-01-01T03:58:32.398Z,1.70
2023-01-01T04:01:04.085Z,2.03
2023-01-01T04:03:31.182Z,2.03
2023-01-01T04:05:57.899Z,1.50
2023-01-01T04:08:24.901Z,1.50
2023-01-01T04:10:53.187Z,2.20
2023-01-01T04:13:19.668Z,1.90
2023-01-01T04:15:46.165Z,2.93
2023-01-01T04:18:12.845Z,1.80
2023-01-01T04:20:39.346Z,1.60
2023-01-01T04:23:05.908Z,1.90
2023-01-01T04:25:32.740Z,2.27
2023-01-01T04:27:59.313Z,1.70
2023-01-01T04:30:26.864Z,1.83
2023-01-01T04:32:54.480Z,3.03
2023-01-01T04:35:20.997Z,1.77
2023-01-01T04:37:48.442Z,1.33
2023-01-01T04:40:15.202Z,1.90
2023-01-01T04:42:41.985Z,1.53
2023-01-01T04:45:08.761Z,2.00
2023-01-01T04:47:35.380Z,1.70
2023-01-01T04:50:01.894Z,1.50
2023-01-01T04:52:28.400Z,1.27
2023-01-01T04:54:54.881Z,2.07
2023-01-01T04:57:21.424Z,1.90
2023-01-01T04:59:47.937Z,2.23
2023-01-01T05:02:14.579Z,1.20
2023-01-01T05:04:41.143Z,2.20
2023-01-01T05:07:07.903Z,2.10
2023-01-01T05:09:34.400Z,2.60
2023-01-01T05:12:00.900Z,2.30
2023-01-01T05:14:27.410Z,2.93
2023-01-01T05:16:53.921Z,1.93
2023-01-01T05:19:20.585Z,1.47
2023-01-01T05:21:47.333Z,2.70
2023-01-01T05:24:14.047Z,1.83
2023-01-01T05:26:41.849Z,2.17
2023-01-01T05:29:15.661Z,3.50
2023-01-01T05:31:43.337Z,2.20
2023-01-01T05:34:09.927Z,1.87
2023-01-01T05:36:38.849Z,2.40
2023-01-01T05:39:06.812Z,1.90
2023-01-01T05:41:36.134Z,1.77
2023-01-01T05:44:04.030Z,2.43
2023-01-01T05:46:30.685Z,1.93
2023-01-01T05:48:57.199Z,1.63
2023-01-01T05:51:24.745Z,2.57
2023-01-01T05:53:51.891Z,1.67
2023-01-01T05:56:18.566Z,1.87
2023-01-01T05:58:45.486Z,1.40
2023-01-01T06:01:22.727Z,2.33
2023-01-01T06:03:49.519Z,2.43
2023-01-01T06:06:21.390Z,2.03
2023-01-01T06:08:55.788Z,2.37
2023-01-01T06:11:22.657Z,1.83
2023-01-01T06:13:51.563Z,2.13
2023-01-01T06:16:18.136Z,2.40
2023-01-01T06:18:44.903Z,3.10
2023-01-01T06:21:12.644Z,1.10
2023-01-01T06:23:39.815Z,2.00
2023-01-01T06:26:06.601Z,2.20
2023-01-01T06:28:33.273Z,2.83
2023-01-01T06:31:01.588Z,3.00
2023-01-01T06:33:28.460Z,1.87
2023-01-01T06:35:55.113Z,1.97
2023-01-01T06:38:21.686Z,2.60
2023-01-01T06:40:58.545Z,3.10
2023-01-01T06:43:25.642Z,2.20
2023-01-01T06:46:11.410Z,2.30
2023-01-01T06:48:37.911Z,2.40
2023-01-01T06:51:11.817Z,3.53
2023-01-01T06:53:38.613Z,2.43
2023-01-01T06:56:05.357Z,2.60
2023-01-01T06:58:32.048Z,1.60
2023-01-01T07:01:08.329Z,1.63
2023-01-01T07:03:35.825Z,2.67
2023-01-01T07:06:02.549Z,0.97
2023-01-01T07:08:29.165Z,2.83
2023-01-01T07:10:57.452Z,2.40
2023-01-01T07:13:24.750Z,2.90
2023-01-01T07:15:52.114Z,2.17
2023-01-01T07:18:19.683Z,3.00
2023-01-01T07:21:05.737Z,2.20
2023-01-01T07:23:33.484Z,2.70
2023-01-01T07:26:00.311Z,2.70
2023-01-01T07:28:27.241Z,3.07
2023-01-01T07:30:54.370Z,3.00
2023-01-01T07:33:22.145Z,2.50
2023-01-01T07:35:49.418Z,2.10
2023-01-01T07:38:16.078Z,2.53
2023-01-01T07:40:43.080Z,4.40
2023-01-01T07:43:09.683Z,1.60
2023-01-01T07:45:36.412Z,2.70
2023-01-01T07:48:02.988Z,2.57
2023-01-01T07:50:30.764Z,1.80
2023-01-01T07:52:57.317Z,5.20
2023-01-01T07:55:24.144Z,1.67
2023-01-01T07:57:50.721Z,3.03
2023-01-01T08:00:18.687Z,2.13
2023-01-01T08:02:45.777Z,1.80
2023-01-01T08:05:12.607Z,1.80
2023-01-01T08:07:39.499Z,2.30
2023-01-01T08:10:06.999Z,2.30
2023-01-01T08:12:33.656Z,2.23
2023-01-01T08:15:00.253Z,1.87
2023-01-01T08:17:26.721Z,2.87
2023-01-01T08:19:53.307Z,2.73
2023-01-01T08:22:19.967Z,3.20
2023-01-01T08:24:46.457Z,2.10
2023-01-01T08:27:16.591Z,1.93
2023-01-01T08:29:43.851Z,3.30
2023-01-01T08:32:11.157Z,2.37
2023-01-01T08:34:37.686Z,2.77
2023-01-01T08:37:04.570Z,1.90
2023-01-01T08:39:31.180Z,2.00
2023-01-01T08:41:57.745Z,2.57
2023-01-01T08:44:24.350Z,2.33
2023-01-01T08:46:52.419Z,1.37
2023-01-01T08:49:19.098Z,2.10
2023-01-01T08:51:45.686Z,2.23
2023-01-01T08:54:12.477Z,3.20
2023-01-01T08:56:39.140Z,2.60
2023-01-01T08:59:06.149Z,2.70
2023-01-01T09:01:33.149Z,1.80
2023-01-01T09:04:00.122Z,2.87
2023-01-01T09:06:26.744Z,2.93
2023-01-01T09:08:53.322Z,1.83
2023-01-01T09:11:23.875Z,2.50
2023-01-01T09:13:50.827Z,2.33
2023-01-01T09:16:17.476Z,2.40
2023-01-01T09:18:44.336Z,2.30
2023-01-01T09:21:10.965Z,2.37
2023-01-01T09:23:37.648Z,3.10
2023-01-01T09:26:05.078Z,2.57
2023-01-01T09:28:31.728Z,1.60
2023-01-01T09:30:58.406Z,3.03
2023-01-01T09:33:25.002Z,2.10
2023-01-01T09:35:51.752Z,2.60
2023-01-01T09:38:18.301Z,1.70
2023-01-01T09:40:53.518Z,2.40
2023-01-01T09:43:26.568Z,2.20
2023-01-01T09:45:58.636Z,2.63
2023-01-01T09:48:26.679Z,2.13
2023-01-01T09:50:53.745Z,2.27
2023-01-01T09:53:37.912Z,2.00
2023-01-01T09:56:05.460Z,2.77
2023-01-01T09:58:33.538Z,3.00
2023-01-01T10:01:03.811Z,2.07
2023-01-01T10:03:30.552Z,2.27
2023-01-01T10:06:02.965Z,2.07
2023-01-01T10:08:50.096Z,2.17
2023-01-01T10:11:35.768Z,4.00
2023-01-01T10:14:15.494Z,2.90
2023-01-01T10:16:47.329Z,1.37
2023-01-01T10:19:24.284Z,3.67
2023-01-01T10:21:53.019Z,2.43
2023-01-01T10:24:22.662Z,1.93
2023-01-01T10:26:50.495Z,3.30
2023-01-01T10:29:20.190Z,1.93
2023-01-01T10:31:47.501Z,2.67
2023-01-01T10:34:28.400Z,3.70
2023-01-01T10:36:57.367Z,2.87
2023-01-01T10:39:24.336Z,2.20
2023-01-01T10:41:51.647Z,3.20
2023-01-01T10:44:31.038Z,1.43
2023-01-01T10:46:59.343Z,2.10
2023-01-01T10:49:26.193Z,2.20
2023-01-01T10:51:53.929Z,2.00
2023-01-01T10:54:31.829Z,3.20
2023-01-01T10:56:59.276Z,2.77
2023-01-01T10:59:34.317Z,2.50
2023-01-01T11:02:27.695Z,2.10
2023-01-01T11:05:19.199Z,1.67
2023-01-01T11:07:47.907Z,2.50
2023-01-01T11:10:22.297Z,3.60
2023-01-01T11:13:06.504Z,2.40
2023-01-01T11:15:33.412Z,3.00
2023-01-01T11:18:06.943Z,2.37
2023-01-01T11:20:34.229Z,1.57
2023-01-01T11:23:16.909Z,1.83
2023-01-01T11:25:56.105Z,2.63
2023-01-01T11:28:22.710Z,1.80
2023-01-01T11:31:00.333Z,2.03
2023-01-01T11:33:28.055Z,3.70
2023-01-01T11:35:55.531Z,2.33
2023-01-01T11:38:29.569Z,2.17
2023-01-01T11:41:02.330Z,1.60
2023-01-01T11:43:31.557Z,3.40
2023-01-01T11:45:58.907Z,2.90
2023-01-01T11:48:33.245Z,3.37
2023-01-01T11:51:11.689Z,1.70
2023-01-01T11:53:39.357Z,3.13
2023-01-01T11:56:17.323Z,2.00
2023-01-01T11:59:03.382Z,2.37
2023-01-01T12:01:43.587Z,2.33
2023-01-01T12:04:13.296Z,2.13
2023-01-01T12:06:43.777Z,2.60
2023-01-01T12:09:29.412Z,1.83
2023-01-01T12:12:02.097Z,1.80
2023-01-01T12:14:35.469Z,2.77
2023-01-01T12:17:05.568Z,2.73
2023-01-01T12:19:52.601Z,2.73
2023-01-01T12:22:19.545Z,3.13
2023-01-01T12:24:47.781Z,3.57
2023-01-01T12:27:16.015Z,2.40
2023-01-01T12:29:45.798Z,2.30
2023-01-01T12:32:22.451Z,2.20
2023-01-01T12:34:49.121Z,2.33
2023-01-01T12:37:28.273Z,3.07
2023-01-01T12:40:22.765Z,2.80
2023-01-01T12:42:56.954Z,3.20
2023-01-01T12:45:30.931Z,2.27
2023-01-01T12:48:07.284Z,1.33
2023-01-01T12:50:57.240Z,2.07
2023-01-01T12:53:50.488Z,3.77
2023-01-01T12:56:23.768Z,2.07
2023-01-01T12:59:26.133Z,2.10
2023-01-01T13:01:56.385Z,1.77
2023-01-01T13:04:23.122Z,2.50
2023-01-01T13:07:03.757Z,3.00
2023-01-01T13:09:33.567Z,2.67
2023-01-01T13:12:01.626Z,2.00
2023-01-01T13:14:28.194Z,3.00
2023-01-01T13:16:55.674Z,3.70
2023-01-01T13:19:33.127Z,3.10
2023-01-01T13:22:00.830Z,1.77
2023-01-01T13:24:27.783Z,2.60
2023-01-01T13:26:54.584Z,3.23
2023-01-01T13:29:21.185Z,3.93
2023-01-01T13:31:47.741Z,3.17
2023-01-01T13:34:35.089Z,4.20
2023-01-01T13:37:10.958Z,2.43
2023-01-01T13:39:54.261Z,2.90
2023-01-01T13:42:40.885Z,2.33
2023-01-01T13:45:36.941Z,2.10
2023-01-01T13:48:25.449Z,2.43
2023-01-01T13:51:04.971Z,3.03
2023-01-01T13:53:32.275Z,2.67
2023-01-01T13:56:11.285Z,3.10
2023-01-01T13:58:45.416Z,3.07
2023-01-01T14:01:12.084Z,3.60
2023-01-01T14:03:41.907Z,2.50
2023-01-01T14:06:13.123Z,2.40
2023-01-01T14:08:40.258Z,2.43
2023-01-01T14:11:20.688Z,2.40
2023-01-01T14:13:47.886Z,1.93
2023-01-01T14:16:16.028Z,2.70
2023-01-01T14:18:47.891Z,3.70
2023-01-01T14:21:15.999Z,2.73
2023-01-01T14:23:48.501Z,2.07
2023-01-01T14:26:18.211Z,2.53
2023-01-01T14:28:44.965Z,2.17
2023-01-01T14:31:13.863Z,2.50
2023-01-01T14:33:40.772Z,1.67
2023-01-01T14:36:20.144Z,1.90
2023-01-01T14:38:48.065Z,2.33
2023-01-01T14:41:27.054Z,2.00
2023-01-01T14:43:54.694Z,1.50
2023-01-01T14:46:24.197Z,1.73
2023-01-01T14:48:52.914Z,1.37
2023-01-01T14:51:20.967Z,3.00
2023-01-01T14:53:48.242Z,1.50
2023-01-01T14:56:22.406Z,1.00
2023-01-01T14:58:49.284Z,1.20
2023-01-01T15:01:23.217Z,1.10
2023-01-01T15:03:58.298Z,1.47
2023-01-01T15:06:25.892Z,1.70
2023-01-01T15:08:53.131Z,1.20
2023-01-01T15:11:26.615Z,1.33
2023-01-01T15:14:02.288Z,1.20
2023-01-01T15:16:33.313Z,1.30
2023-01-01T15:19:16.279Z,1.30
2023-01-01T15:21:42.906Z,1.50
2023-01-01T15:24:14.457Z,1.20
2023-01-01T15:26:48.807Z,0.93
2023-01-01T15:29:17.539Z,1.13
2023-01-01T15:31:46.483Z,1.10
2023-01-01T15:34:20.195Z,1.10
2023-01-01T15:36:47.010Z,0.90
2023-01-01T15:39:13.786Z,1.10
2023-01-01T15:41:44.168Z,3.23
2023-01-01T15:44:25.072Z,1.23
2023-01-01T15:46:52.914Z,2.13
2023-01-01T15:49:22.716Z,2.00
2023-01-01T15:51:49.390Z,1.23
2023-01-01T15:54:17.473Z,1.40
2023-01-01T15:56:44.978Z,2.37
2023-01-01T15:59:23.785Z,3.00
2023-01-01T16:01:50.803Z,2.27
2023-01-01T16:04:24.115Z,3.63
2023-01-01T16:06:55.477Z,18.63
2023-01-01T16:09:22.104Z,24.97
2023-01-01T16:11:52.796Z,12.60
2023-01-01T16:14:19.909Z,19.37
2023-01-01T16:16:53.172Z,23.60
2023-01-01T16:19:21.217Z,13.67
2023-01-01T16:21:47.987Z,23.37
2023-01-01T16:24:15.845Z,15.63
2023-01-01T16:26:42.693Z,14.90
2023-01-01T16:29:09.840Z,4.33
2023-01-01T16:31:37.284Z,3.03
2023-01-01T16:34:05.196Z,2.10
2023-01-01T16:36:31.782Z,2.60
2023-01-01T16:38:58.558Z,4.53
2023-01-01T16:41:26.711Z,2.67
2023-01-01T16:43:53.453Z,2.40
2023-01-01T16:46:20.192Z,3.93
2023-01-01T16:48:47.199Z,3.37
2023-01-01T16:51:16.770Z,4.27
2023-01-01T16:53:43.633Z,2.90
2023-01-01T16:56:11.403Z,3.53
2023-01-01T16:58:49.149Z,6.90
2023-01-01T17:01:16.677Z,31.47
2023-01-01T17:03:43.448Z,10.07
2023-01-01T17:06:10.314Z,9.43
2023-01-01T17:08:37.309Z,3.50
2023-01-01T17:11:09.821Z,4.47
2023-01-01T17:13:38.487Z,5.43
2023-01-01T17:16:05.470Z,4.10
2023-01-01T17:19:13.829Z,3.13
2023-01-01T17:21:19.492Z,4.93
2023-01-01T17:23:46.192Z,3.57
2023-01-01T17:26:14.793Z,3.57
2023-01-01T17:28:42.406Z,4.10
2023-01-01T17:31:11.816Z,3.90
2023-01-01T17:33:39.358Z,4.60
2023-01-01T17:36:06.523Z,2.90
2023-01-01T17:38:33.127Z,2.70
2023-01-01T17:41:04.701Z,3.50
2023-01-01T17:43:35.379Z,4.13
2023-01-01T17:46:03.564Z,3.67
2023-01-01T17:48:30.240Z,3.93
2023-01-01T17:50:56.898Z,3.80
2023-01-01T17:53:23.524Z,4.27
2023-01-01T17:55:50.221Z,2.77
2023-01-01T17:58:16.809Z,3.40
2023-01-01T18:00:43.415Z,3.23
2023-01-01T18:03:13.719Z,2.80
2023-01-01T18:05:40.479Z,4.67
2023-01-01T18:08:07.334Z,3.00
2023-01-01T18:10:34.363Z,3.07
2023-01-01T18:13:01.230Z,4.03
2023-01-01T18:15:27.969Z,7.47
2023-01-01T18:17:54.646Z,6.77
2023-01-01T18:20:21.406Z,6.23
2023-01-01T18:22:47.994Z,5.40
2023-01-01T18:25:14.647Z,5.73
2023-01-01T18:27:41.423Z,3.27
2023-01-01T18:30:08.339Z,3.67
2023-01-01T18:32:36.445Z,7.33
2023-01-01T18:35:03.233Z,4.37
2023-01-01T18:37:29.906Z,6.10
2023-01-01T18:39:58.589Z,5.60
2023-01-01T18:42:35.017Z,10.20
2023-01-01T18:45:08.482Z,5.33
2023-01-01T18:47:35.196Z,4.67
2023-01-01T18:50:08.215Z,5.00
2023-01-01T18:52:36.074Z,5.43
2023-01-01T18:55:08.750Z,5.27
2023-01-01T18:57:35.714Z,5.20
2023-01-01T19:00:15.041Z,4.60
2023-01-01T19:02:44.569Z,4.80
2023-01-01T19:05:19.136Z,6.77
2023-01-01T19:07:50.978Z,4.77
2023-01-01T19:10:17.673Z,5.33
2023-01-01T19:12:44.389Z,5.20
2023-01-01T19:15:19.758Z,6.00
2023-01-01T19:17:46.548Z,6.43
2023-01-01T19:20:17.859Z,6.03
2023-01-01T19:22:44.563Z,5.27
2023-01-01T19:25:29.880Z,4.40
2023-01-01T19:27:56.558Z,3.70
2023-01-01T19:30:23.363Z,4.70
2023-01-01T19:32:50.132Z,5.50
2023-01-01T19:35:16.823Z,5.30
2023-01-01T19:37:43.569Z,5.63
2023-01-01T19:40:11.473Z,4.90
2023-01-01T19:42:38.049Z,4.30
2023-01-01T19:45:06.986Z,5.10
2023-01-01T19:47:33.503Z,4.80
2023-01-01T19:50:00.218Z,4.13
2023-01-01T19:52:26.913Z,4.23
2023-01-01T19:54:53.542Z,4.70
2023-01-01T19:57:20.862Z,3.87
2023-01-01T19:59:47.400Z,4.13
2023-01-01T20:05:00.651Z,4.23
2023-01-01T20:07:27.328Z,4.87
2023-01-01T20:09:53.960Z,3.27
2023-01-01T20:12:20.603Z,3.80
2023-01-01T20:14:47.325Z,3.00
2023-01-01T20:17:14.681Z,2.97
2023-01-01T20:19:42.367Z,4.67
2023-01-01T20:22:12.215Z,4.00
2023-01-01T20:24:42.408Z,5.10
2023-01-01T20:27:09.589Z,5.83
2023-01-01T20:29:36.186Z,5.57
2023-01-01T20:32:02.907Z,3.73
2023-01-01T20:34:30.299Z,5.67
2023-01-01T20:37:15.619Z,5.23
2023-01-01T20:39:42.175Z,6.97
2023-01-01T20:42:08.673Z,4.67
2023-01-01T20:44:35.809Z,5.80
2023-01-01T20:47:02.440Z,5.03
2023-01-01T20:49:29.047Z,5.07
2023-01-01T20:51:55.576Z,5.90
2023-01-01T20:54:22.435Z,5.07
2023-01-01T20:56:49.195Z,6.50
2023-01-01T21:02:02.952Z,5.33
2023-01-01T21:04:29.703Z,4.80
2023-01-01T21:06:56.297Z,5.60
2023-01-01T21:09:22.806Z,4.80
2023-01-01T21:11:49.742Z,5.03
2023-01-01T21:14:17.171Z,5.30
2023-01-01T21:16:44.450Z,7.50
2023-01-01T21:19:11.711Z,7.03
2023-01-01T21:21:43.348Z,5.30
2023-01-01T21:24:23.581Z,7.70
2023-01-01T21:26:51.672Z,6.33
2023-01-01T21:29:22.719Z,5.60
2023-01-01T21:31:56.221Z,4.47
2023-01-01T21:34:38.089Z,5.00
2023-01-01T21:37:42.354Z,4.17
2023-01-01T21:40:27.885Z,5.07
2023-01-01T21:42:57.475Z,5.50
2023-01-01T21:45:29.230Z,6.20
2023-01-01T21:47:56.191Z,5.70
2023-01-01T21:50:26.088Z,5.63
2023-01-01T21:53:00.206Z,5.13
2023-01-01T21:55:46.953Z,4.70
2023-01-01T21:58:32.394Z,6.77
2023-01-01T22:00:59.103Z,5.43
2023-01-01T22:03:25.990Z,5.77
2023-01-01T22:05:58.977Z,5.43
2023-01-01T22:08:26.137Z,5.80
2023-01-01T22:10:52.864Z,5.50
2023-01-01T22:13:19.596Z,5.37
2023-01-01T22:15:46.738Z,4.87
2023-01-01T22:18:26.388Z,6.30
2023-01-01T22:20:52.991Z,6.23
2023-01-01T22:23:24.544Z,6.30
2023-01-01T22:25:51.729Z,7.10
2023-01-01T22:28:22.729Z,5.90
2023-01-01T22:30:51.598Z,6.67
2023-01-01T22:33:18.864Z,6.50
2023-01-01T22:35:45.898Z,11.27
2023-01-01T22:38:15.249Z,6.77
2023-01-01T22:40:42.601Z,11.23
2023-01-01T22:43:09.187Z,7.17
2023-01-01T22:45:38.507Z,4.63
2023-01-01T22:48:06.972Z,5.17
2023-01-01T22:50:34.387Z,5.70
2023-01-01T22:53:01.031Z,4.90
2023-01-01T22:55:27.687Z,5.40
2023-01-01T22:57:54.365Z,7.00
2023-01-01T23:00:21.292Z,8.33
2023-01-01T23:02:47.988Z,4.17
2023-01-01T23:05:14.716Z,4.70
2023-01-01T23:07:42.429Z,5.50
2023-01-01T23:10:10.800Z,4.47
2023-01-01T23:12:37.523Z,5.93
2023-01-01T23:15:23.003Z,5.50
2023-01-01T23:17:49.671Z,7.17
2023-01-01T23:20:17.465Z,6.60
2023-01-01T23:22:45.275Z,5.17
2023-01-01T23:25:13.333Z,3.40
2023-01-01T23:27:40.396Z,2.30
2023-01-01T23:30:07.203Z,4.30
2023-01-01T23:32:34.649Z,2.47
2023-01-01T23:35:01.215Z,3.93
2023-01-01T23:37:27.752Z,3.17
2023-01-01T23:39:54.311Z,2.77
2023-01-01T23:42:20.827Z,7.40
2023-01-01T23:44:47.493Z,5.67
2023-01-01T23:47:14.145Z,2.40
2023-01-01T23:49:41.529Z,2.27
2023-01-01T23:52:08.512Z,2.00
2023-01-01T23:54:35.170Z,3.60
2023-01-01T23:57:01.699Z,2.23
2023-01-01T23:59:28.255Z,2.70
